Terminal Aerodrome Forecast
Issued by NWS

Home | Current Version | Previous Version | Text Only | Print | Product List | Glossary On
Versions: 1 2 3 4 5 6 7 8 9 10 11 12 13
000
FTUS43 KMPX 191411 AAA
TAFRNH
TAF AMD
KRNH 191411Z 1914/2012 18006KT P6SM OVC020
     FM192000 26010G18KT 6SM -RA OVC025
     FM200200 31012G22KT 6SM -RA OVC035
     FM200600 31014G24KT P6SM OVC080=

USA.gov is the U.S. government's official web portal to all federal, state and local government web resources and services.